createdAt,value
2022-09-04T00:04:46.264Z,6.78
2022-09-04T00:10:13.111Z,6.65
2022-09-04T00:15:26.852Z,5.57
2022-09-04T00:20:41.484Z,6.80
2022-09-04T00:26:14.552Z,6.57
2022-09-04T00:31:40.016Z,6.78
2022-09-04T00:36:50.233Z,7.38
2022-09-04T00:42:32.212Z,6.55
2022-09-04T00:47:55.552Z,6.78
2022-09-04T00:53:26.221Z,7.57
2022-09-04T00:58:49.657Z,7.18
2022-09-04T01:03:57.558Z,7.32
2022-09-04T01:09:25.355Z,7.25
2022-09-04T01:14:53.295Z,8.27
2022-09-04T01:20:06.044Z,7.40
2022-09-04T01:25:53.813Z,8.00
2022-09-04T01:31:23.351Z,7.32
2022-09-04T01:36:49.925Z,8.20
2022-09-04T01:42:15.084Z,8.07
2022-09-04T01:47:28.693Z,7.22
2022-09-04T01:53:01.575Z,7.40
2022-09-04T01:58:23.204Z,8.40
2022-09-04T02:03:39.450Z,7.32
2022-09-04T02:08:49.005Z,7.30
2022-09-04T02:14:17.879Z,7.15
2022-09-04T02:19:24.270Z,7.07
2022-09-04T02:25:01.342Z,7.65
2022-09-04T02:30:10.638Z,8.27
2022-09-04T02:35:34.491Z,7.88
2022-09-04T02:41:09.038Z,8.07
2022-09-04T02:46:27.209Z,8.48
2022-09-04T02:51:53.455Z,8.07
2022-09-04T02:57:30.332Z,7.47
2022-09-04T03:02:58.433Z,8.25
2022-09-04T03:08:26.261Z,9.45
2022-09-04T03:13:34.734Z,7.85
2022-09-04T03:19:01.387Z,9.20
2022-09-04T03:24:29.891Z,7.90
2022-09-04T03:29:41.284Z,8.25
2022-09-04T03:34:50.278Z,9.73
2022-09-04T03:40:12.728Z,7.32
2022-09-04T03:45:20.471Z,8.95
2022-09-04T03:50:32.858Z,8.77
2022-09-04T03:55:55.393Z,8.50
2022-09-04T04:01:25.099Z,8.85
2022-09-04T04:06:43.281Z,10.18
2022-09-04T04:12:20.412Z,10.48
2022-09-04T04:17:36.131Z,10.23
2022-09-04T04:22:48.515Z,11.70
2022-09-04T04:28:23.498Z,8.48
2022-09-04T04:33:44.382Z,8.45
2022-09-04T04:39:20.025Z,9.95
2022-09-04T04:44:50.899Z,10.43
2022-09-04T04:50:15.572Z,8.35
2022-09-04T04:55:41.365Z,10.38
2022-09-04T05:00:55.493Z,9.75
2022-09-04T05:06:12.523Z,10.80
2022-09-04T05:11:27.064Z,12.95
2022-09-04T05:16:56.247Z,9.55
2022-09-04T05:22:17.576Z,10.52
2022-09-04T05:27:23.126Z,10.77
2022-09-04T05:32:34.204Z,10.70
2022-09-04T05:37:55.921Z,11.43
2022-09-04T05:43:14.533Z,11.90
2022-09-04T05:48:46.452Z,12.02
2022-09-04T05:54:23.044Z,12.95
2022-09-04T05:59:47.863Z,12.05
2022-09-04T06:04:55.923Z,13.30
2022-09-04T06:10:49.255Z,13.10
2022-09-04T06:16:06.877Z,12.80
2022-09-04T06:21:15.537Z,13.30
2022-09-04T06:26:36.225Z,20.13
2022-09-04T06:32:04.570Z,19.23
2022-09-04T06:37:37.640Z,24.63
2022-09-04T06:42:43.192Z,26.05
2022-09-04T06:48:09.737Z,24.60
2022-09-04T06:53:19.088Z,26.00
2022-09-04T06:59:01.395Z,25.83
2022-09-04T07:05:00.892Z,25.70
2022-09-04T07:10:10.542Z,25.40
2022-09-04T07:15:25.534Z,25.00
2022-09-04T07:20:34.877Z,25.25
2022-09-04T07:25:51.003Z,25.00
2022-09-04T07:31:00.314Z,24.92
2022-09-04T07:36:34.441Z,24.23
2022-09-04T07:41:46.931Z,22.08
2022-09-04T07:47:13.655Z,20.73
2022-09-04T07:52:54.988Z,19.55
2022-09-04T07:58:20.554Z,18.02
2022-09-04T08:03:26.430Z,13.77
2022-09-04T08:09:04.162Z,16.52
2022-09-04T08:14:18.703Z,14.95
2022-09-04T08:20:02.455Z,18.05
2022-09-04T08:25:18.003Z,17.30
2022-09-04T08:30:21.391Z,13.30
2022-09-04T08:35:59.744Z,15.30
2022-09-04T08:41:29.621Z,12.85
2022-09-04T08:47:02.030Z,11.02
2022-09-04T08:52:25.119Z,13.05
2022-09-04T08:57:33.743Z,11.10
2022-09-04T09:02:49.208Z,12.52
2022-09-04T09:08:16.411Z,10.07
2022-09-04T09:13:29.568Z,9.25
2022-09-04T09:18:40.690Z,10.07
2022-09-04T09:24:21.119Z,9.10
2022-09-04T09:29:49.167Z,7.93
2022-09-04T09:35:22.507Z,9.23
2022-09-04T09:40:28.113Z,8.43
2022-09-04T09:46:08.630Z,7.82
2022-09-04T09:51:23.572Z,7.15
2022-09-04T09:56:51.763Z,7.35
2022-09-04T10:02:14.809Z,7.35
2022-09-04T10:07:27.259Z,6.40
2022-09-04T10:12:51.082Z,7.97
2022-09-04T10:18:07.471Z,6.45
2022-09-04T10:23:28.629Z,5.32
2022-09-04T10:28:41.009Z,6.68
2022-09-04T10:34:14.933Z,6.72
2022-09-04T10:39:56.066Z,7.65
2022-09-04T10:45:07.702Z,5.20
2022-09-04T10:50:29.731Z,6.28
2022-09-04T10:55:47.271Z,4.40
2022-09-04T11:01:30.256Z,4.60
2022-09-04T11:07:10.714Z,4.20
2022-09-04T11:12:31.787Z,3.80
2022-09-04T11:17:43.759Z,3.60
2022-09-04T11:23:18.588Z,4.00
2022-09-04T11:28:44.445Z,4.45
2022-09-04T11:34:14.909Z,3.97
2022-09-04T11:39:58.964Z,4.22
2022-09-04T11:45:05.841Z,4.35
2022-09-04T11:50:08.612Z,3.70
2022-09-04T11:55:22.517Z,3.70
2022-09-04T12:00:25.249Z,4.60
2022-09-04T12:05:59.454Z,4.13
2022-09-04T12:11:21.076Z,4.90
2022-09-04T12:16:48.352Z,5.20
2022-09-04T12:22:07.411Z,3.45
2022-09-04T12:27:32.008Z,3.60
2022-09-04T12:32:43.323Z,3.85
2022-09-04T12:38:24.844Z,3.80
2022-09-04T12:43:46.571Z,4.30
2022-09-04T12:49:07.796Z,4.23
2022-09-04T12:54:33.434Z,4.63
2022-09-04T12:59:56.463Z,4.60
2022-09-04T13:05:11.351Z,4.63
2022-09-04T13:10:37.332Z,3.92
2022-09-04T13:15:49.957Z,4.10
2022-09-04T13:21:18.635Z,3.80
2022-09-04T13:26:46.093Z,3.92
2022-09-04T13:32:26.755Z,4.47
2022-09-04T13:37:54.527Z,3.80
2022-09-04T13:43:16.553Z,3.55
2022-09-04T13:48:44.938Z,4.20
2022-09-04T13:53:57.781Z,4.38
2022-09-04T13:59:09.813Z,4.40
2022-09-04T14:04:27.628Z,4.10
2022-09-04T14:09:39.203Z,3.30
2022-09-04T14:15:05.701Z,3.20
2022-09-04T14:20:31.090Z,3.30
2022-09-04T14:25:43.873Z,3.70
2022-09-04T14:31:12.811Z,3.03
2022-09-04T14:36:39.984Z,3.50
2022-09-04T14:41:57.779Z,2.88
2022-09-04T14:47:26.732Z,3.22
2022-09-04T14:52:37.891Z,3.17
2022-09-04T14:57:52.436Z,3.30
2022-09-04T15:02:55.152Z,3.17
2022-09-04T15:08:07.650Z,3.50
2022-09-04T15:13:19.151Z,3.10
2022-09-04T15:18:39.243Z,3.53
2022-09-04T15:23:52.840Z,3.30
2022-09-04T15:29:27.564Z,2.80
2022-09-04T15:39:54.369Z,3.25
2022-09-04T15:44:59.873Z,2.90
2022-09-04T15:50:16.719Z,3.22
2022-09-04T15:55:37.678Z,3.30
2022-09-04T16:01:02.465Z,3.20
2022-09-04T16:06:11.392Z,3.20
2022-09-04T16:11:39.270Z,3.33
2022-09-04T16:16:49.771Z,3.47
2022-09-04T16:22:09.358Z,3.50
2022-09-04T16:27:16.374Z,3.40
2022-09-04T16:32:22.671Z,3.60
2022-09-04T16:37:31.823Z,3.50
2022-09-04T16:42:50.911Z,3.67
2022-09-04T16:48:25.083Z,3.90
2022-09-04T16:53:53.752Z,3.70
2022-09-04T16:59:22.549Z,3.50
2022-09-04T17:04:40.233Z,4.00
2022-09-04T17:10:08.825Z,3.20
2022-09-04T17:15:21.673Z,3.30
2022-09-04T17:26:26.749Z,3.53
2022-09-04T17:29:15.035Z,4.18
2022-09-04T17:31:56.465Z,4.00
2022-09-04T17:40:46.600Z,4.00
2022-09-04T17:42:40.331Z,4.38
2022-09-04T17:47:48.748Z,3.50
2022-09-04T17:53:02.123Z,3.60
2022-09-04T17:58:30.210Z,3.38
2022-09-04T18:04:21.262Z,3.58
2022-09-04T18:09:32.173Z,3.55
2022-09-04T18:14:41.768Z,4.10
2022-09-04T18:19:49.308Z,3.60
2022-09-04T18:25:12.939Z,3.63
2022-09-04T18:36:35.456Z,3.72
2022-09-04T18:37:15.823Z,3.80
2022-09-04T18:47:13.409Z,3.83
2022-09-04T18:50:39.986Z,4.07
2022-09-04T18:52:43.317Z,3.60
2022-09-04T18:58:22.110Z,3.85
2022-09-04T19:04:19.764Z,3.63
2022-09-04T19:09:27.830Z,4.03
2022-09-04T19:14:35.362Z,3.80
2022-09-04T19:19:50.002Z,4.30
2022-09-04T19:24:59.409Z,4.20
2022-09-04T19:30:23.807Z,4.40
2022-09-04T19:35:46.027Z,4.75
2022-09-04T19:46:03.509Z,4.63
2022-09-04T19:46:29.366Z,4.75
2022-09-04T19:53:24.013Z,4.72
2022-09-04T19:57:33.013Z,4.60
2022-09-04T20:02:44.299Z,5.10
2022-09-04T20:07:58.559Z,5.32
2022-09-04T20:13:26.635Z,4.95
2022-09-04T20:19:03.893Z,5.13
2022-09-04T20:24:19.669Z,5.13
2022-09-04T20:29:29.113Z,4.63
2022-09-04T20:35:13.513Z,5.25
2022-09-04T20:40:36.227Z,5.22
2022-09-04T20:49:15.274Z,5.72
2022-09-04T20:52:48.760Z,4.93
2022-09-04T21:00:07.608Z,4.82
2022-09-04T21:03:19.848Z,5.10
2022-09-04T21:08:16.784Z,5.35
2022-09-04T21:13:39.938Z,5.00
2022-09-04T21:19:28.144Z,5.65
2022-09-04T21:24:24.177Z,5.20
2022-09-04T21:29:47.240Z,5.18
2022-09-04T21:34:59.939Z,5.03
2022-09-04T21:40:50.354Z,5.60
2022-09-04T21:46:07.684Z,5.70
2022-09-04T21:51:43.097Z,5.68
2022-09-04T22:02:32.339Z,5.63
2022-09-04T22:03:02.815Z,5.28
2022-09-04T22:13:26.708Z,5.43
2022-09-04T22:13:53.285Z,5.43
2022-09-04T22:19:16.648Z,5.38
2022-09-04T22:25:10.338Z,5.40
2022-09-04T22:30:22.831Z,5.38
2022-09-04T22:35:47.479Z,5.63
2022-09-04T22:41:03.335Z,5.38
2022-09-04T22:46:43.921Z,5.57
2022-09-04T22:52:09.783Z,5.95
2022-09-04T22:57:24.382Z,5.35
2022-09-04T23:13:42.563Z,5.85
2022-09-04T23:14:13.446Z,5.07
2022-09-04T23:25:44.196Z,5.65
2022-09-04T23:26:49.397Z,5.45
2022-09-04T23:36:21.367Z,5.32
2022-09-04T23:41:52.661Z,5.57
2022-09-04T23:47:46.890Z,5.55
2022-09-04T23:53:00.646Z,5.28
2022-09-04T23:58:29.426Z,5.88
